createdAt,value
2023-03-29T00:04:36.769Z,4.70
2023-03-29T00:07:42.815Z,5.03
2023-03-29T00:10:50.112Z,6.80
2023-03-29T00:14:04.788Z,4.50
2023-03-29T00:17:09.214Z,6.62
2023-03-29T00:20:15.072Z,5.80
2023-03-29T00:23:19.896Z,4.60
2023-03-29T00:26:25.237Z,5.50
2023-03-29T00:34:00.215Z,6.07
2023-03-29T00:37:09.241Z,5.00
2023-03-29T00:40:15.864Z,5.50
2023-03-29T00:43:20.655Z,5.00
2023-03-29T00:50:36.680Z,5.82
2023-03-29T00:53:49.700Z,4.65
2023-03-29T00:56:55.937Z,4.45
2023-03-29T01:00:05.633Z,5.07
2023-03-29T01:03:25.477Z,8.32
2023-03-29T01:06:34.662Z,6.03
2023-03-29T01:09:44.193Z,5.05
2023-03-29T01:12:57.557Z,5.40
2023-03-29T01:20:46.644Z,4.97
2023-03-29T01:24:19.759Z,6.03
2023-03-29T01:27:50.780Z,5.95
2023-03-29T01:31:04.420Z,6.12
2023-03-29T01:34:26.380Z,6.70
2023-03-29T01:37:34.478Z,5.55
2023-03-29T01:40:38.777Z,7.28
2023-03-29T01:43:59.505Z,6.25
2023-03-29T01:51:36.621Z,5.62
2023-03-29T01:54:56.616Z,6.15
2023-03-29T01:58:03.492Z,5.60
2023-03-29T02:01:10.909Z,4.95
2023-03-29T02:04:21.065Z,5.95
2023-03-29T02:07:31.001Z,5.73
2023-03-29T02:10:37.175Z,8.23
2023-03-29T02:13:42.408Z,5.15
2023-03-29T02:21:09.495Z,5.00
2023-03-29T02:24:19.141Z,6.75
2023-03-29T02:27:23.877Z,7.32
2023-03-29T02:30:34.445Z,6.77
2023-03-29T02:33:48.192Z,5.78
2023-03-29T02:37:02.452Z,6.18
2023-03-29T02:40:08.409Z,6.70
2023-03-29T02:43:17.027Z,6.45
2023-03-29T02:46:22.411Z,6.62
2023-03-29T02:49:27.417Z,8.00
2023-03-29T02:52:37.576Z,6.15
2023-03-29T02:55:42.318Z,7.12
2023-03-29T02:58:46.529Z,8.18
2023-03-29T03:06:12.712Z,10.95
2023-03-29T03:09:18.580Z,8.27
2023-03-29T03:12:23.504Z,7.67
2023-03-29T03:15:29.044Z,7.22
2023-03-29T03:18:34.293Z,7.25
2023-03-29T03:21:39.638Z,5.80
2023-03-29T03:24:43.853Z,8.07
2023-03-29T03:27:50.124Z,8.43
2023-03-29T03:30:55.066Z,6.65
2023-03-29T03:38:31.774Z,4.85
2023-03-29T03:41:38.143Z,5.62
2023-03-29T03:44:42.468Z,6.13
2023-03-29T03:47:48.867Z,9.63
2023-03-29T03:51:00.261Z,7.53
2023-03-29T03:54:09.258Z,7.28
2023-03-29T03:57:16.990Z,6.70
2023-03-29T04:00:23.747Z,6.00
2023-03-29T04:07:57.064Z,8.50
2023-03-29T04:11:03.250Z,6.55
2023-03-29T04:14:11.959Z,6.68
2023-03-29T04:17:17.821Z,7.63
2023-03-29T04:20:25.319Z,8.55
2023-03-29T04:23:38.345Z,15.07
2023-03-29T04:26:49.422Z,10.68
2023-03-29T04:29:55.286Z,8.98
2023-03-29T04:40:32.029Z,7.50
2023-03-29T04:43:48.026Z,8.68
2023-03-29T04:46:53.618Z,6.53
2023-03-29T04:50:01.076Z,8.00
2023-03-29T04:53:07.948Z,7.90
2023-03-29T04:56:13.917Z,8.35
2023-03-29T04:59:19.978Z,9.15
2023-03-29T05:02:38.062Z,8.60
2023-03-29T05:10:11.465Z,9.45
2023-03-29T05:13:21.106Z,11.53
2023-03-29T05:16:26.780Z,10.50
2023-03-29T05:19:33.009Z,9.90
2023-03-29T05:22:42.064Z,7.50
2023-03-29T05:25:50.785Z,9.27
2023-03-29T05:28:57.968Z,12.45
2023-03-29T05:32:03.311Z,12.15
2023-03-29T05:39:38.082Z,11.93
2023-03-29T05:42:44.364Z,13.75
2023-03-29T05:45:49.563Z,9.65
2023-03-29T05:48:58.130Z,8.43
2023-03-29T05:56:18.238Z,11.85
2023-03-29T05:59:24.916Z,11.57
2023-03-29T06:02:33.903Z,9.20
2023-03-29T06:05:40.836Z,9.50
2023-03-29T06:08:50.184Z,10.18
2023-03-29T06:12:09.554Z,8.93
2023-03-29T06:15:19.415Z,10.27
2023-03-29T06:18:29.154Z,10.90
2023-03-29T06:25:58.497Z,8.03
2023-03-29T06:29:04.769Z,11.05
2023-03-29T06:32:12.051Z,7.47
2023-03-29T06:35:25.705Z,8.75
2023-03-29T06:42:49.509Z,7.47
2023-03-29T06:45:58.884Z,8.20
2023-03-29T06:49:08.292Z,9.32
2023-03-29T06:52:14.966Z,10.45
2023-03-29T06:55:29.022Z,9.37
2023-03-29T06:58:36.424Z,8.70
2023-03-29T07:01:44.332Z,10.98
2023-03-29T07:04:52.948Z,11.48
2023-03-29T07:12:23.132Z,6.87
2023-03-29T07:15:35.002Z,6.28
2023-03-29T07:18:43.875Z,7.50
2023-03-29T07:26:28.815Z,9.10
2023-03-29T07:29:42.787Z,8.70
2023-03-29T07:32:47.160Z,8.27
2023-03-29T07:35:59.573Z,8.45
2023-03-29T07:43:35.197Z,6.25
2023-03-29T07:46:40.550Z,5.93
2023-03-29T07:49:47.330Z,5.55
2023-03-29T07:52:57.289Z,4.78
2023-03-29T07:56:11.127Z,7.32
2023-03-29T07:59:17.904Z,6.53
2023-03-29T08:02:24.217Z,5.80
2023-03-29T08:05:40.749Z,5.95
2023-03-29T08:13:11.052Z,4.37
2023-03-29T08:16:23.630Z,6.00
2023-03-29T08:19:36.290Z,4.20
2023-03-29T08:22:45.131Z,6.07
2023-03-29T08:25:52.589Z,5.40
2023-03-29T08:28:57.752Z,5.43
2023-03-29T08:32:09.960Z,3.90
2023-03-29T08:35:18.301Z,5.40
2023-03-29T08:43:23.365Z,5.18
2023-03-29T08:46:44.704Z,5.97
2023-03-29T08:49:57.401Z,5.68
2023-03-29T08:53:11.041Z,5.20
2023-03-29T08:56:26.010Z,5.37
2023-03-29T08:59:35.048Z,6.03
2023-03-29T09:02:42.620Z,5.35
2023-03-29T09:06:13.395Z,10.52
2023-03-29T09:09:23.438Z,47.97
2023-03-29T09:13:15.199Z,8.32
2023-03-29T09:16:36.727Z,5.05
2023-03-29T09:20:04.197Z,4.90
2023-03-29T09:23:32.767Z,4.93
2023-03-29T09:27:06.267Z,3.93
2023-03-29T09:30:27.265Z,4.93
2023-03-29T09:33:55.567Z,5.12
2023-03-29T09:37:21.798Z,4.28
2023-03-29T09:40:42.113Z,5.00
2023-03-29T09:43:51.676Z,5.73
2023-03-29T09:47:04.961Z,5.25
2023-03-29T09:50:31.368Z,4.93
2023-03-29T09:53:36.604Z,7.12
2023-03-29T09:56:45.009Z,6.40
2023-03-29T09:59:51.987Z,4.57
2023-03-29T10:02:57.952Z,5.75
2023-03-29T10:06:05.331Z,5.15
2023-03-29T10:09:20.056Z,4.82
2023-03-29T10:12:25.243Z,13.43
2023-03-29T10:15:30.926Z,49.80
2023-03-29T10:18:44.063Z,9.50
2023-03-29T10:21:50.151Z,7.03
2023-03-29T10:24:58.901Z,6.32
2023-03-29T10:28:12.289Z,7.15
2023-03-29T10:31:21.399Z,5.97
2023-03-29T10:34:29.992Z,6.28
2023-03-29T10:37:36.011Z,5.05
2023-03-29T10:40:47.802Z,6.03
2023-03-29T10:43:53.877Z,5.78
2023-03-29T10:47:07.041Z,5.17
2023-03-29T10:50:18.750Z,6.10
2023-03-29T10:53:29.795Z,6.22
2023-03-29T10:56:37.268Z,6.45
2023-03-29T11:00:05.773Z,6.57
2023-03-29T11:03:28.240Z,7.20
2023-03-29T11:06:41.299Z,6.22
2023-03-29T11:09:58.857Z,5.15
2023-03-29T11:13:34.728Z,6.28
2023-03-29T11:17:13.920Z,5.00
2023-03-29T11:21:11.013Z,6.27
2023-03-29T11:24:51.528Z,5.47
2023-03-29T11:28:13.331Z,8.43
2023-03-29T11:31:38.875Z,5.47
2023-03-29T11:34:55.809Z,6.82
2023-03-29T11:38:13.830Z,5.53
2023-03-29T11:41:18.993Z,7.70
2023-03-29T11:44:22.364Z,5.25
2023-03-29T11:47:37.436Z,6.53
2023-03-29T11:51:02.019Z,6.05
2023-03-29T11:54:28.784Z,6.37
2023-03-29T11:57:52.704Z,6.50
2023-03-29T12:01:18.950Z,8.30
2023-03-29T12:04:41.394Z,6.37
2023-03-29T12:07:59.004Z,5.07
2023-03-29T12:11:14.691Z,7.37
2023-03-29T12:14:32.003Z,6.50
2023-03-29T12:17:46.166Z,7.15
2023-03-29T12:20:57.713Z,6.87
2023-03-29T12:24:02.489Z,7.82
2023-03-29T12:27:29.950Z,7.07
2023-03-29T12:30:36.892Z,6.57
2023-03-29T12:34:03.846Z,5.90
2023-03-29T12:37:24.972Z,5.75
2023-03-29T12:40:45.768Z,6.57
2023-03-29T12:44:04.796Z,5.53
2023-03-29T12:47:22.301Z,6.68
2023-03-29T12:50:36.147Z,5.75
2023-03-29T12:53:45.805Z,6.05
2023-03-29T12:57:21.298Z,6.37
2023-03-29T13:00:34.390Z,5.90
2023-03-29T13:03:40.746Z,8.00
2023-03-29T13:06:51.707Z,6.82
2023-03-29T13:09:59.428Z,7.35
2023-03-29T13:13:15.829Z,6.05
2023-03-29T13:16:31.400Z,7.63
2023-03-29T13:19:47.716Z,5.70
2023-03-29T13:23:18.352Z,5.65
2023-03-29T13:26:57.782Z,6.82
2023-03-29T13:30:31.394Z,6.03
2023-03-29T13:33:53.328Z,5.23
2023-03-29T13:37:40.717Z,5.65
2023-03-29T13:40:54.945Z,5.75
2023-03-29T13:44:02.870Z,6.85
2023-03-29T13:47:22.729Z,5.78
2023-03-29T13:50:42.902Z,6.33
2023-03-29T13:53:50.252Z,8.38
2023-03-29T13:57:24.877Z,5.35
2023-03-29T14:00:53.664Z,7.32
2023-03-29T14:04:06.584Z,6.62
2023-03-29T14:07:26.545Z,5.13
2023-03-29T14:10:44.704Z,6.78
2023-03-29T14:14:06.957Z,5.55
2023-03-29T14:17:26.976Z,6.53
2023-03-29T14:20:33.132Z,7.22
2023-03-29T14:23:42.150Z,6.93
2023-03-29T14:26:49.828Z,8.07
2023-03-29T14:29:55.571Z,7.93
2023-03-29T14:33:09.128Z,6.78
2023-03-29T14:36:18.775Z,6.30
2023-03-29T14:39:25.077Z,6.40
2023-03-29T14:42:37.049Z,5.65
2023-03-29T14:45:54.692Z,13.52
2023-03-29T14:48:59.259Z,9.00
2023-03-29T14:52:15.796Z,7.35
2023-03-29T14:55:28.707Z,7.10
2023-03-29T14:58:50.011Z,7.75
2023-03-29T15:02:00.130Z,7.45
2023-03-29T15:05:26.763Z,8.00
2023-03-29T15:09:03.748Z,8.45
2023-03-29T15:12:22.856Z,10.87
2023-03-29T15:15:28.956Z,11.55
2023-03-29T15:18:40.190Z,8.93
2023-03-29T15:22:02.235Z,17.48
2023-03-29T15:25:18.776Z,11.90
2023-03-29T15:28:31.800Z,6.50
2023-03-29T15:31:39.736Z,7.68
2023-03-29T15:35:02.700Z,18.90
2023-03-29T15:38:07.000Z,23.55
2023-03-29T15:41:20.657Z,14.25
2023-03-29T15:44:39.028Z,22.73
2023-03-29T15:47:54.642Z,20.58
2023-03-29T15:51:06.098Z,17.00
2023-03-29T15:54:20.630Z,53.03
2023-03-29T15:57:26.711Z,41.55
2023-03-29T16:00:33.884Z,50.03
2023-03-29T16:03:47.650Z,24.55
2023-03-29T16:06:57.882Z,12.70
2023-03-29T16:10:03.869Z,9.00
2023-03-29T16:13:14.756Z,8.35
2023-03-29T16:16:31.636Z,6.20
2023-03-29T16:19:35.152Z,6.10
2023-03-29T16:22:55.339Z,6.57
2023-03-29T16:26:06.653Z,7.35
2023-03-29T16:29:14.775Z,7.85
2023-03-29T16:32:18.150Z,8.13
2023-03-29T16:35:33.781Z,8.02
2023-03-29T16:38:56.603Z,14.30
2023-03-29T16:42:14.617Z,14.48
2023-03-29T16:45:27.413Z,9.98
2023-03-29T16:48:51.643Z,10.67
2023-03-29T16:51:56.537Z,7.05
2023-03-29T16:55:27.617Z,6.68
2023-03-29T16:58:43.666Z,9.55
2023-03-29T17:01:58.732Z,11.93
2023-03-29T17:05:04.234Z,5.50
2023-03-29T17:08:18.751Z,7.53
2023-03-29T17:11:36.844Z,7.30
2023-03-29T17:14:56.639Z,6.55
2023-03-29T17:18:02.732Z,7.12
2023-03-29T17:21:14.193Z,5.87
2023-03-29T17:24:26.720Z,8.60
2023-03-29T17:27:30.690Z,7.47
2023-03-29T17:30:42.793Z,9.70
2023-03-29T17:34:03.691Z,8.15
2023-03-29T17:37:24.008Z,10.50
2023-03-29T17:40:31.685Z,8.75
2023-03-29T17:43:58.591Z,9.35
2023-03-29T17:47:20.627Z,9.38
2023-03-29T17:50:32.726Z,8.95
2023-03-29T17:53:52.714Z,9.60
2023-03-29T17:57:05.139Z,9.85
2023-03-29T18:00:17.974Z,9.75
2023-03-29T18:03:36.620Z,9.48
2023-03-29T18:06:50.739Z,9.93
2023-03-29T18:10:20.658Z,9.63
2023-03-29T18:13:30.201Z,10.40
2023-03-29T18:16:38.344Z,9.57
2023-03-29T18:19:41.936Z,9.90
2023-03-29T18:22:51.712Z,11.70
2023-03-29T18:26:03.225Z,9.70
2023-03-29T18:29:10.898Z,9.38
2023-03-29T18:32:21.147Z,8.10
2023-03-29T18:35:44.681Z,14.02
2023-03-29T18:38:59.878Z,14.60
2023-03-29T18:42:10.821Z,14.77
2023-03-29T18:45:23.745Z,11.10
2023-03-29T18:48:35.726Z,12.25
2023-03-29T18:51:59.712Z,10.32
2023-03-29T18:55:12.790Z,10.68
2023-03-29T18:58:24.098Z,9.57
2023-03-29T19:01:27.694Z,8.10
2023-03-29T19:04:34.747Z,10.48
2023-03-29T19:07:44.335Z,20.98
2023-03-29T19:10:49.728Z,19.65
2023-03-29T19:13:58.716Z,15.50
2023-03-29T19:17:21.797Z,14.00
2023-03-29T19:20:32.273Z,15.18
2023-03-29T19:23:42.473Z,11.15
2023-03-29T19:26:59.714Z,11.68
2023-03-29T19:30:11.645Z,16.17
2023-03-29T19:33:28.603Z,15.32
2023-03-29T19:36:31.980Z,14.05
2023-03-29T19:39:41.924Z,12.55
2023-03-29T19:42:51.937Z,13.90
2023-03-29T19:45:57.432Z,12.30
2023-03-29T19:49:13.741Z,13.07
2023-03-29T19:52:24.078Z,15.63
2023-03-29T19:55:31.701Z,13.80
2023-03-29T19:58:50.576Z,13.98
2023-03-29T20:02:04.917Z,12.07
2023-03-29T20:05:10.875Z,11.73
2023-03-29T20:08:21.745Z,12.25
2023-03-29T20:11:29.725Z,10.65
2023-03-29T20:14:49.561Z,12.77
2023-03-29T20:17:59.423Z,13.03
2023-03-29T20:21:04.964Z,16.85
2023-03-29T20:24:12.800Z,15.80
2023-03-29T20:27:25.651Z,14.43
2023-03-29T20:30:29.610Z,12.70
2023-03-29T20:33:36.150Z,12.57
2023-03-29T20:36:41.217Z,13.62
2023-03-29T20:39:45.268Z,14.15
2023-03-29T20:42:49.074Z,12.48
2023-03-29T20:45:53.843Z,12.77
2023-03-29T20:49:09.745Z,14.43
2023-03-29T20:52:17.697Z,16.00
2023-03-29T20:55:24.562Z,14.77
2023-03-29T20:58:34.827Z,12.77
2023-03-29T21:01:44.745Z,11.75
2023-03-29T21:04:53.928Z,12.97
2023-03-29T21:07:58.372Z,18.87
2023-03-29T21:11:03.345Z,12.85
2023-03-29T21:14:15.630Z,10.32
2023-03-29T21:17:20.120Z,12.40
2023-03-29T21:20:25.140Z,11.77
2023-03-29T21:23:28.582Z,11.38
2023-03-29T21:26:32.236Z,8.88
2023-03-29T21:29:39.818Z,10.80
2023-03-29T21:32:43.242Z,13.70
2023-03-29T21:35:50.478Z,11.80
2023-03-29T21:38:55.735Z,9.98
2023-03-29T21:42:02.270Z,12.50
2023-03-29T21:45:10.967Z,10.95
2023-03-29T21:48:14.394Z,10.88
2023-03-29T21:51:23.873Z,13.00
2023-03-29T21:54:27.695Z,15.07
2023-03-29T21:57:31.674Z,14.35
2023-03-29T22:00:34.775Z,13.48
2023-03-29T22:03:39.255Z,12.13
2023-03-29T22:06:43.088Z,15.30
2023-03-29T22:09:55.083Z,14.15
2023-03-29T22:12:58.234Z,15.27
2023-03-29T22:16:04.039Z,12.90
2023-03-29T22:19:09.753Z,15.95
2023-03-29T22:22:14.926Z,16.43
2023-03-29T22:25:24.467Z,15.55
2023-03-29T22:28:27.493Z,14.75
2023-03-29T22:31:31.941Z,14.48
2023-03-29T22:34:36.382Z,14.23
2023-03-29T22:37:42.590Z,13.60
2023-03-29T22:40:47.452Z,14.85
2023-03-29T22:43:55.389Z,15.82
2023-03-29T22:46:59.146Z,14.18
2023-03-29T22:50:02.328Z,12.27
2023-03-29T22:53:05.380Z,11.73
2023-03-29T22:56:09.297Z,11.95
2023-03-29T22:59:13.796Z,14.60
2023-03-29T23:02:17.339Z,15.93
2023-03-29T23:05:20.106Z,14.63
2023-03-29T23:08:24.396Z,11.97
2023-03-29T23:11:27.705Z,13.07
2023-03-29T23:14:31.249Z,12.75
2023-03-29T23:17:35.070Z,13.70
2023-03-29T23:20:37.864Z,12.88
2023-03-29T23:23:41.785Z,15.67
2023-03-29T23:26:44.437Z,10.07
2023-03-29T23:29:47.941Z,10.75
2023-03-29T23:32:52.563Z,13.13
2023-03-29T23:35:55.543Z,10.68
2023-03-29T23:38:59.639Z,11.17
2023-03-29T23:42:03.685Z,11.95
2023-03-29T23:45:08.832Z,11.88
2023-03-29T23:48:11.594Z,10.95
2023-03-29T23:51:18.193Z,10.75
2023-03-29T23:54:21.334Z,11.87
2023-03-29T23:57:24.199Z,10.07
